createdAt,value
2018-09-04T00:01:59.927Z,7.13
2018-09-04T00:04:29.274Z,7.30
2018-09-04T00:07:00.678Z,7.80
2018-09-04T00:09:29.436Z,7.10
2018-09-04T00:12:02.513Z,7.20
2018-09-04T00:14:31.995Z,6.63
2018-09-04T00:17:00.180Z,7.53
2018-09-04T00:19:30.346Z,7.03
2018-09-04T00:21:59.710Z,7.53
2018-09-04T00:24:30.393Z,7.50
2018-09-04T00:27:00.298Z,7.30
2018-09-04T00:34:56.940Z,7.27
2018-09-04T00:37:34.180Z,8.50
2018-09-04T00:40:05.934Z,7.90
2018-09-04T00:42:38.796Z,8.17
2018-09-04T00:45:11.249Z,7.47
2018-09-04T00:47:40.521Z,8.07
2018-09-04T00:50:12.469Z,8.73
2018-09-04T00:52:41.778Z,7.30
2018-09-04T00:55:12.977Z,8.30
2018-09-04T00:57:41.657Z,7.87
2018-09-04T01:00:12.495Z,7.83
2018-09-04T01:02:43.802Z,8.73
2018-09-04T01:05:13.146Z,9.00
2018-09-04T01:07:44.527Z,7.90
2018-09-04T01:10:13.242Z,9.03
2018-09-04T01:12:42.814Z,8.67
2018-09-04T01:15:11.422Z,8.57
2018-09-04T01:17:41.940Z,9.10
2018-09-04T01:20:11.066Z,8.60
2018-09-04T01:22:42.672Z,8.33
2018-09-04T01:25:13.781Z,7.70
2018-09-04T01:27:42.896Z,8.90
2018-09-04T01:30:13.743Z,9.13
2018-09-04T01:32:46.258Z,8.80
2018-09-04T01:35:17.320Z,7.63
2018-09-04T01:37:47.026Z,8.30
2018-09-04T01:40:18.096Z,8.93
2018-09-04T01:42:47.718Z,8.20
2018-09-04T01:45:18.282Z,8.40
2018-09-04T01:47:49.589Z,8.50
2018-09-04T01:50:20.553Z,7.73
2018-09-04T01:52:51.148Z,8.10
2018-09-04T01:55:23.076Z,8.57
2018-09-04T01:57:52.816Z,8.70
2018-09-04T02:00:22.213Z,9.37
2018-09-04T02:02:50.887Z,8.13
2018-09-04T02:05:20.303Z,7.93
2018-09-04T02:07:49.666Z,8.43
2018-09-04T02:10:23.424Z,9.00
2018-09-04T02:12:51.923Z,9.23
2018-09-04T02:15:21.203Z,9.20
2018-09-04T02:17:52.336Z,8.80
2018-09-04T02:20:20.577Z,8.10
2018-09-04T02:22:50.469Z,8.63
2018-09-04T02:25:24.462Z,9.63
2018-09-04T02:27:54.236Z,8.23
2018-09-04T02:30:24.462Z,9.30
2018-09-04T02:32:55.159Z,8.20
2018-09-04T02:35:26.243Z,8.90
2018-09-04T02:37:57.271Z,8.70
2018-09-04T02:40:26.972Z,9.27
2018-09-04T02:42:56.533Z,7.40
2018-09-04T02:52:33.353Z,9.07
2018-09-04T02:55:02.401Z,8.27
2018-09-04T02:57:31.501Z,8.70
2018-09-04T03:00:00.614Z,8.40
2018-09-04T03:02:32.117Z,9.17
2018-09-04T03:05:01.131Z,8.60
2018-09-04T03:07:30.962Z,8.60
2018-09-04T03:10:08.958Z,8.00
2018-09-04T03:12:40.458Z,8.87
2018-09-04T03:15:10.174Z,7.70
2018-09-04T03:17:42.748Z,9.30
2018-09-04T03:20:13.890Z,8.40
2018-09-04T03:22:44.844Z,8.57
2018-09-04T03:25:17.643Z,9.17
2018-09-04T03:27:46.359Z,9.23
2018-09-04T03:30:17.545Z,9.00
2018-09-04T03:32:48.647Z,8.63
2018-09-04T03:35:18.603Z,9.10
2018-09-04T03:37:48.639Z,8.97
2018-09-04T03:40:17.850Z,9.23
2018-09-04T03:42:48.238Z,9.30
2018-09-04T03:45:17.195Z,7.80
2018-09-04T03:47:45.979Z,9.47
2018-09-04T03:50:17.315Z,8.63
2018-09-04T03:53:52.169Z,8.67
2018-09-04T03:56:22.832Z,8.93
2018-09-04T03:58:53.072Z,8.90
2018-09-04T04:01:23.177Z,9.57
2018-09-04T04:03:54.507Z,9.60
2018-09-04T04:06:24.487Z,9.27
2018-09-04T04:08:54.443Z,8.93
2018-09-04T04:11:23.429Z,9.33
2018-09-04T04:13:52.870Z,9.07
2018-09-04T04:16:21.490Z,8.70
2018-09-04T04:18:51.439Z,7.77
2018-09-04T04:21:22.882Z,7.47
2018-09-04T04:23:55.215Z,6.87
2018-09-04T04:26:25.667Z,7.67
2018-09-04T04:28:57.844Z,7.23
2018-09-04T04:31:30.154Z,6.37
2018-09-04T04:34:01.463Z,7.73
2018-09-04T04:36:36.028Z,6.70
2018-09-04T04:39:07.327Z,7.27
2018-09-04T04:41:36.105Z,7.57
2018-09-04T04:44:07.012Z,7.30
2018-09-04T04:46:41.079Z,7.23
2018-09-04T04:49:11.582Z,7.47
2018-09-04T04:51:45.367Z,6.53
2018-09-04T04:54:14.856Z,7.00
2018-09-04T04:56:45.730Z,8.43
2018-09-04T04:59:16.867Z,7.30
2018-09-04T05:01:47.276Z,7.70
2018-09-04T05:04:17.192Z,7.47
2018-09-04T05:06:47.016Z,7.67
2018-09-04T05:09:21.511Z,8.10
2018-09-04T05:11:54.703Z,8.33
2018-09-04T05:14:24.819Z,7.97
2018-09-04T05:16:55.254Z,8.27
2018-09-04T05:19:29.372Z,6.73
2018-09-04T05:21:59.795Z,7.97
2018-09-04T05:24:30.357Z,8.00
2018-09-04T05:27:02.472Z,8.90
2018-09-04T05:29:37.548Z,8.40
2018-09-04T05:33:10.576Z,7.40
2018-09-04T05:35:46.139Z,8.80
2018-09-04T05:38:15.635Z,8.73
2018-09-04T05:40:44.180Z,8.20
2018-09-04T05:43:17.224Z,7.50
2018-09-04T05:45:46.451Z,8.80
2018-09-04T05:48:15.977Z,8.77
2018-09-04T05:50:44.606Z,8.70
2018-09-04T05:53:13.511Z,9.33
2018-09-04T05:55:42.336Z,9.80
2018-09-04T05:58:11.073Z,9.50
2018-09-04T06:00:45.710Z,8.87
2018-09-04T06:03:14.131Z,10.20
2018-09-04T06:05:42.693Z,9.87
2018-09-04T06:08:10.986Z,10.27
2018-09-04T06:10:39.677Z,9.80
2018-09-04T06:13:08.036Z,9.73
2018-09-04T06:15:36.728Z,9.97
2018-09-04T06:18:05.318Z,9.80
2018-09-04T06:20:33.838Z,9.80
2018-09-04T06:23:02.332Z,9.47
2018-09-04T06:25:30.872Z,8.90
2018-09-04T06:27:59.362Z,10.53
2018-09-04T06:30:27.897Z,11.27
2018-09-04T06:32:56.423Z,9.43
2018-09-04T06:35:24.659Z,11.30
2018-09-04T06:37:52.933Z,11.10
2018-09-04T06:40:23.805Z,11.20
2018-09-04T06:42:52.396Z,11.40
2018-09-04T06:45:21.131Z,11.07
2018-09-04T06:47:49.943Z,9.67
2018-09-04T06:50:18.443Z,10.50
2018-09-04T06:52:47.101Z,10.27
2018-09-04T06:55:15.593Z,11.47
2018-09-04T06:57:44.245Z,10.63
2018-09-04T07:00:14.362Z,11.60
2018-09-04T07:02:42.874Z,10.53
2018-09-04T07:05:12.210Z,11.33
2018-09-04T07:07:41.301Z,10.47
2018-09-04T07:10:10.440Z,10.87
2018-09-04T07:12:39.531Z,10.50
2018-09-04T07:15:08.337Z,10.43
2018-09-04T07:17:36.780Z,11.30
2018-09-04T07:20:05.667Z,11.10
2018-09-04T07:22:34.390Z,10.80
2018-09-04T07:25:02.978Z,10.27
2018-09-04T07:27:31.699Z,10.37
2018-09-04T07:30:00.203Z,10.50
2018-09-04T07:32:28.684Z,10.70
2018-09-04T07:34:57.178Z,10.27
2018-09-04T07:37:25.751Z,10.20
2018-09-04T07:39:53.961Z,9.60
2018-09-04T07:42:22.526Z,10.47
2018-09-04T07:44:51.078Z,10.23
2018-09-04T07:47:19.587Z,11.57
2018-09-04T07:49:48.067Z,12.30
2018-09-04T07:52:16.614Z,11.87
2018-09-04T07:54:45.113Z,12.30
2018-09-04T07:57:13.579Z,14.00
2018-09-04T07:59:42.067Z,14.30
2018-09-04T08:02:10.569Z,13.93
2018-09-04T08:04:39.068Z,13.77
2018-09-04T08:07:07.743Z,13.50
2018-09-04T08:09:36.222Z,13.07
2018-09-04T08:12:04.767Z,12.40
2018-09-04T08:14:33.209Z,11.50
2018-09-04T08:17:01.824Z,14.10
2018-09-04T08:19:30.379Z,16.70
2018-09-04T08:21:58.890Z,19.33
2018-09-04T08:24:27.465Z,23.10
2018-09-04T08:26:56.077Z,30.40
2018-09-04T08:29:24.641Z,29.00
2018-09-04T08:31:53.154Z,28.83
2018-09-04T08:34:21.664Z,33.60
2018-09-04T08:36:50.131Z,31.13
2018-09-04T08:39:18.373Z,31.53
2018-09-04T08:41:46.960Z,31.00
2018-09-04T08:44:15.490Z,28.90
2018-09-04T08:46:43.702Z,29.20
2018-09-04T08:49:12.239Z,26.73
2018-09-04T08:51:40.776Z,24.60
2018-09-04T08:54:09.296Z,22.37
2018-09-04T08:56:37.613Z,25.40
2018-09-04T08:59:06.761Z,23.00
2018-09-04T09:01:35.336Z,28.67
2018-09-04T09:04:03.800Z,31.50
2018-09-04T09:06:32.252Z,34.50
2018-09-04T09:09:00.713Z,30.87
2018-09-04T09:11:29.515Z,29.27
2018-09-04T09:13:58.196Z,27.00
2018-09-04T09:16:26.893Z,26.70
2018-09-04T09:18:55.370Z,23.23
2018-09-04T09:21:23.862Z,19.83
2018-09-04T09:23:52.130Z,17.43
2018-09-04T09:26:20.877Z,14.70
2018-09-04T09:28:49.497Z,15.50
2018-09-04T09:31:18.099Z,13.70
2018-09-04T09:33:46.838Z,14.63
2018-09-04T09:36:15.322Z,15.03
2018-09-04T09:38:43.998Z,15.27
2018-09-04T09:41:12.203Z,16.47
2018-09-04T09:43:40.452Z,17.83
2018-09-04T09:46:09.027Z,16.40
2018-09-04T09:48:40.273Z,19.30
2018-09-04T09:51:09.637Z,16.80
2018-09-04T09:53:38.464Z,16.63
2018-09-04T09:56:07.151Z,15.53
2018-09-04T09:58:35.576Z,12.77
2018-09-04T10:01:09.493Z,12.97
2018-09-04T10:03:43.389Z,12.70
2018-09-04T10:06:11.913Z,12.10
2018-09-04T10:08:40.384Z,13.53
2018-09-04T10:11:09.020Z,13.40
2018-09-04T10:13:37.615Z,13.37
2018-09-04T10:16:05.795Z,11.80
2018-09-04T10:18:34.484Z,12.30
2018-09-04T10:21:03.018Z,13.57
2018-09-04T10:23:31.562Z,13.93
2018-09-04T10:26:00.035Z,12.37
2018-09-04T10:28:28.495Z,12.43
2018-09-04T10:30:57.123Z,14.00
2018-09-04T10:33:25.401Z,12.70
2018-09-04T10:35:54.056Z,12.53
2018-09-04T10:38:25.727Z,12.50
2018-09-04T10:41:00.158Z,12.23
2018-09-04T10:43:29.672Z,13.23
2018-09-04T10:46:07.396Z,13.07
2018-09-04T10:48:36.023Z,12.83
2018-09-04T10:51:05.026Z,11.50
2018-09-04T10:53:33.469Z,13.77
2018-09-04T10:56:01.986Z,14.63
2018-09-04T10:58:30.488Z,13.00
2018-09-04T11:00:58.825Z,15.83
2018-09-04T11:03:27.596Z,15.00
2018-09-04T11:05:56.223Z,15.73
2018-09-04T11:08:24.875Z,16.23
2018-09-04T11:10:53.491Z,15.37
2018-09-04T11:13:23.435Z,15.60
2018-09-04T11:15:51.964Z,15.00
2018-09-04T11:18:21.808Z,14.57
2018-09-04T11:20:51.357Z,15.07
2018-09-04T11:23:21.897Z,16.60
2018-09-04T11:25:50.587Z,16.50
2018-09-04T11:28:21.476Z,17.40
2018-09-04T11:30:52.051Z,19.20
2018-09-04T11:33:21.359Z,21.93
2018-09-04T11:35:54.946Z,25.20
2018-09-04T11:38:26.767Z,33.87
2018-09-04T11:40:57.719Z,41.77
2018-09-04T11:43:28.484Z,34.13
2018-09-04T11:45:57.665Z,38.50
2018-09-04T11:48:26.571Z,37.50
2018-09-04T11:50:55.105Z,29.77
2018-09-04T11:53:25.113Z,20.57
2018-09-04T11:55:54.784Z,19.20
2018-09-04T11:58:24.304Z,18.20
2018-09-04T12:00:53.458Z,19.87
2018-09-04T12:03:22.467Z,18.77
2018-09-04T12:05:53.197Z,20.30
2018-09-04T12:08:28.036Z,20.63
2018-09-04T12:10:58.083Z,19.23
2018-09-04T12:13:33.371Z,21.80
2018-09-04T12:16:04.863Z,23.60
2018-09-04T12:18:36.439Z,24.93
2018-09-04T12:21:06.767Z,23.43
2018-09-04T12:23:37.213Z,25.57
2018-09-04T12:26:08.133Z,22.83
2018-09-04T12:28:37.418Z,23.57
2018-09-04T12:31:07.472Z,22.97
2018-09-04T12:33:36.900Z,20.37
2018-09-04T12:36:10.562Z,21.67
2018-09-04T12:38:41.021Z,23.10
2018-09-04T12:41:17.421Z,20.43
2018-09-04T12:43:46.676Z,22.93
2018-09-04T12:46:17.313Z,20.23
2018-09-04T12:48:50.296Z,20.47
2018-09-04T12:51:19.528Z,21.03
2018-09-04T12:53:50.951Z,20.10
2018-09-04T12:56:22.097Z,19.87
2018-09-04T12:58:50.904Z,19.40
2018-09-04T13:01:20.387Z,19.87
2018-09-04T13:03:50.401Z,18.33
2018-09-04T13:06:20.417Z,20.03
2018-09-04T13:08:49.999Z,18.90
2018-09-04T13:12:22.981Z,20.57
2018-09-04T13:14:54.483Z,20.60
2018-09-04T13:17:24.801Z,22.20
2018-09-04T13:19:55.623Z,21.33
2018-09-04T13:22:24.144Z,22.77
2018-09-04T13:24:52.549Z,24.60
2018-09-04T13:27:22.824Z,21.83
2018-09-04T13:29:52.142Z,24.20
2018-09-04T13:32:22.982Z,23.77
2018-09-04T13:34:58.627Z,25.03
2018-09-04T13:37:28.594Z,21.30
2018-09-04T13:40:01.632Z,19.90
2018-09-04T13:42:33.728Z,21.67
2018-09-04T13:45:04.920Z,19.10
2018-09-04T13:47:34.400Z,21.70
2018-09-04T13:50:03.602Z,24.70
2018-09-04T13:52:34.039Z,25.47
2018-09-04T13:55:04.318Z,22.20
2018-09-04T13:57:33.796Z,22.47
2018-09-04T14:00:03.509Z,22.70
2018-09-04T14:02:33.903Z,22.77
2018-09-04T14:05:02.843Z,23.30
2018-09-04T14:07:31.776Z,20.30
2018-09-04T14:10:01.004Z,21.50
2018-09-04T14:12:31.371Z,21.73
2018-09-04T14:15:02.468Z,21.33
2018-09-04T14:17:43.975Z,22.30
2018-09-04T14:20:13.006Z,19.67
2018-09-04T14:22:44.007Z,19.67
2018-09-04T14:53:57.716Z,17.50
2018-09-04T14:56:27.281Z,18.20
2018-09-04T14:58:57.430Z,18.13
2018-09-04T15:01:29.134Z,18.97
2018-09-04T15:03:58.025Z,19.40
2018-09-04T15:06:28.280Z,18.73
2018-09-04T15:08:57.593Z,19.23
2018-09-04T15:11:28.515Z,18.17
2018-09-04T15:13:58.490Z,17.13
2018-09-04T15:16:28.899Z,16.70
2018-09-04T15:18:59.777Z,17.10
2018-09-04T15:21:29.820Z,17.60
2018-09-04T15:24:01.300Z,15.87
2018-09-04T15:26:34.173Z,16.03
2018-09-04T15:29:05.664Z,16.33
2018-09-04T15:31:34.431Z,16.10
2018-09-04T15:34:07.042Z,18.83
2018-09-04T15:36:35.283Z,16.70
2018-09-04T15:39:05.315Z,15.20
2018-09-04T15:41:34.494Z,17.30
2018-09-04T15:44:04.751Z,15.00
2018-09-04T15:46:38.977Z,15.43
2018-09-04T15:49:13.653Z,17.93
2018-09-04T15:51:42.969Z,16.93
2018-09-04T15:54:12.482Z,14.53
2018-09-04T15:56:40.796Z,12.93
2018-09-04T15:59:09.286Z,14.90
2018-09-04T16:01:40.662Z,12.50
2018-09-04T16:04:12.202Z,11.77
2018-09-04T16:06:42.691Z,11.03
2018-09-04T16:09:12.822Z,11.53
2018-09-04T16:11:42.685Z,12.40
2018-09-04T16:14:11.455Z,13.33
2018-09-04T16:16:43.056Z,12.80
2018-09-04T16:19:15.638Z,12.60
2018-09-04T16:21:47.942Z,12.10
2018-09-04T16:24:18.329Z,18.43
2018-09-04T16:26:47.786Z,13.43
2018-09-04T16:29:19.989Z,12.80
2018-09-04T16:31:55.200Z,12.00
2018-09-04T16:34:28.083Z,12.43
2018-09-04T16:36:58.535Z,12.30
2018-09-04T16:39:31.428Z,12.93
2018-09-04T16:42:01.404Z,12.50
2018-09-04T16:44:32.523Z,13.50
2018-09-04T16:47:04.208Z,13.70
2018-09-04T16:49:37.717Z,12.20
2018-09-04T16:52:14.164Z,12.70
2018-09-04T16:54:44.302Z,12.37
2018-09-04T16:57:18.111Z,12.77
2018-09-04T16:59:46.613Z,12.33
2018-09-04T17:02:18.567Z,12.30
2018-09-04T17:04:49.760Z,12.40
2018-09-04T17:07:18.923Z,12.03
2018-09-04T17:09:48.127Z,12.17
2018-09-04T17:12:16.696Z,11.27
2018-09-04T17:14:45.756Z,10.80
2018-09-04T17:17:14.953Z,10.57
2018-09-04T17:19:45.929Z,10.40
2018-09-04T17:22:16.083Z,13.13
2018-09-04T17:24:45.681Z,11.97
2018-09-04T17:27:19.102Z,12.30
2018-09-04T17:30:50.591Z,14.97
2018-09-04T17:33:20.504Z,14.70
2018-09-04T17:35:49.809Z,14.90
2018-09-04T17:38:19.676Z,13.13
2018-09-04T17:40:48.300Z,12.67
2018-09-04T17:43:17.091Z,13.50
2018-09-04T17:45:45.480Z,15.93
2018-09-04T17:48:13.759Z,15.40
2018-09-04T17:50:42.446Z,13.00
2018-09-04T17:53:11.025Z,13.07
2018-09-04T17:55:39.556Z,15.13
2018-09-04T18:05:06.233Z,22.93
2018-09-04T18:07:34.875Z,17.70
2018-09-04T18:10:03.634Z,14.80
2018-09-04T18:13:37.174Z,18.10
2018-09-04T18:16:05.650Z,16.00
2018-09-04T18:18:37.972Z,15.33
2018-09-04T18:21:08.018Z,15.77
2018-09-04T18:23:37.145Z,15.40
2018-09-04T18:26:07.010Z,16.53
2018-09-04T18:28:35.259Z,11.20
2018-09-04T18:31:03.956Z,15.03
2018-09-04T18:33:32.654Z,12.77
2018-09-04T18:36:02.062Z,14.17
2018-09-04T18:38:30.714Z,14.53
2018-09-04T18:41:00.198Z,13.50
2018-09-04T18:43:30.690Z,13.77
2018-09-04T18:45:59.831Z,11.87
2018-09-04T18:48:31.341Z,13.70
2018-09-04T18:50:59.808Z,13.10
2018-09-04T18:53:30.711Z,14.37
2018-09-04T18:56:01.072Z,12.83
2018-09-04T18:58:29.732Z,13.90
2018-09-04T19:01:00.319Z,13.17
2018-09-04T19:03:30.553Z,11.37
2018-09-04T19:06:00.265Z,14.87
2018-09-04T19:08:29.393Z,22.10
2018-09-04T19:12:01.865Z,25.87
2018-09-04T19:14:32.280Z,21.77
2018-09-04T19:17:02.227Z,20.90
2018-09-04T19:19:30.907Z,19.63
2018-09-04T19:22:00.494Z,16.90
2018-09-04T19:24:29.195Z,13.97
2018-09-04T19:26:58.833Z,14.97
2018-09-04T19:29:28.171Z,13.50
2018-09-04T19:31:57.532Z,14.43
2018-09-04T19:34:26.957Z,25.43
2018-09-04T19:36:56.268Z,25.47
2018-09-04T19:39:25.516Z,13.70
2018-09-04T19:41:54.800Z,15.00
2018-09-04T19:44:26.749Z,17.40
2018-09-04T19:46:57.564Z,15.63
2018-09-04T19:49:27.272Z,13.03
2018-09-04T19:51:58.377Z,18.80
2018-09-04T19:57:07.374Z,51.80
2018-09-04T19:59:39.657Z,46.90
2018-09-04T20:02:12.260Z,32.57
2018-09-04T20:04:42.933Z,19.73
2018-09-04T20:07:11.880Z,17.00
2018-09-04T20:09:41.099Z,22.90
2018-09-04T20:12:12.352Z,22.47
2018-09-04T20:14:43.349Z,24.00
2018-09-04T20:17:13.335Z,28.90
2018-09-04T20:19:46.257Z,27.97
2018-09-04T20:22:18.747Z,18.27
2018-09-04T20:24:49.761Z,14.97
2018-09-04T20:27:21.299Z,20.50
2018-09-04T20:29:50.042Z,21.37
2018-09-04T20:32:18.338Z,14.57
2018-09-04T20:34:47.921Z,12.60
2018-09-04T20:37:22.322Z,13.70
2018-09-04T20:40:03.523Z,12.43
2018-09-04T20:42:51.419Z,13.47
2018-09-04T20:45:22.742Z,13.00
2018-09-04T20:47:54.896Z,13.00
2018-09-04T20:50:40.078Z,12.47
2018-09-04T20:53:16.931Z,12.70
2018-09-04T20:56:05.296Z,13.20
2018-09-04T20:58:45.173Z,13.47
2018-09-04T21:01:19.798Z,12.20
2018-09-04T21:04:01.244Z,12.53
2018-09-04T21:06:42.914Z,13.50
2018-09-04T21:09:32.836Z,13.60
2018-09-04T21:12:02.715Z,15.40
2018-09-04T21:14:34.300Z,14.30
2018-09-04T21:17:04.094Z,11.80
2018-09-04T21:19:33.737Z,12.70
2018-09-04T21:22:10.046Z,12.80
2018-09-04T21:24:43.669Z,11.63
2018-09-04T21:30:01.027Z,15.40
2018-09-04T21:32:31.120Z,14.07
2018-09-04T21:35:00.934Z,14.47
2018-09-04T21:37:31.756Z,12.10
2018-09-04T21:40:05.499Z,13.37
2018-09-04T21:42:35.129Z,12.00
2018-09-04T21:45:04.906Z,11.50
2018-09-04T21:47:35.212Z,11.67
2018-09-04T21:50:03.588Z,11.73
2018-09-04T21:52:34.630Z,11.53
2018-09-04T21:55:03.344Z,9.97
2018-09-04T21:57:31.739Z,11.10
2018-09-04T21:59:59.954Z,10.07
2018-09-04T22:02:29.350Z,9.80
2018-09-04T22:04:59.807Z,9.30
2018-09-04T22:07:28.868Z,9.70
2018-09-04T22:10:00.160Z,7.90
2018-09-04T22:12:29.762Z,8.90
2018-09-04T22:14:58.360Z,7.33
2018-09-04T22:17:28.991Z,8.20
2018-09-04T22:20:00.078Z,7.93
2018-09-04T22:22:28.638Z,8.40
2018-09-04T22:24:58.611Z,9.43
2018-09-04T22:27:31.396Z,9.00
2018-09-04T22:30:00.686Z,10.67
2018-09-04T22:32:29.926Z,10.47
2018-09-04T22:34:58.363Z,16.83
2018-09-04T22:37:26.730Z,15.70
2018-09-04T22:39:56.179Z,12.67
2018-09-04T22:42:27.191Z,12.17
2018-09-04T22:44:56.434Z,13.60
2018-09-04T22:47:25.764Z,15.67
2018-09-04T22:50:02.279Z,15.70
2018-09-04T22:52:32.499Z,15.20
2018-09-04T22:55:03.140Z,13.63
2018-09-04T22:57:31.954Z,14.00
2018-09-04T23:00:00.668Z,15.30
2018-09-04T23:02:29.216Z,12.30
2018-09-04T23:04:58.282Z,11.17
2018-09-04T23:07:26.812Z,11.90
2018-09-04T23:09:56.359Z,13.00
2018-09-04T23:12:25.139Z,12.70
2018-09-04T23:14:53.836Z,12.30
2018-09-04T23:17:23.281Z,12.43
2018-09-04T23:19:52.000Z,11.67
2018-09-04T23:22:20.541Z,12.23
2018-09-04T23:24:48.963Z,12.37
2018-09-04T23:27:17.564Z,11.63
2018-09-04T23:29:49.610Z,12.40
2018-09-04T23:32:18.171Z,12.33
2018-09-04T23:34:46.693Z,11.87
2018-09-04T23:37:15.362Z,11.50
2018-09-04T23:39:44.476Z,11.17
2018-09-04T23:42:13.118Z,10.30
2018-09-04T23:44:41.767Z,11.40
2018-09-04T23:47:10.350Z,12.40
2018-09-04T23:49:38.941Z,13.23
2018-09-04T23:52:07.559Z,13.03
2018-09-04T23:54:37.195Z,15.73
2018-09-04T23:57:05.940Z,14.50
2018-09-04T23:59:35.485Z,14.03
